ポートビラ の空港の天気 - METARとTAF

ポートビラ・バウアフィールド空港 ( NVVV / VLI ) - バヌアツ ポートビラ
飛行場実況気象(Metar)
観測時間08/07 08:00 VUT (08/06 21:00 UTC)
風向・風速東南東 2m/s
視程10km以上
天気現象
全天の8割程度の雲 雲底高度 610m
気温23℃
湿度69%
気圧1016hPa
METARNVVV 062100Z 11003KT 9999 BKN020 23/17 Q1016
過去の天気等 Google飛行場航空写真 Wunderground天気予報

過去48時間のMETAR

飛行場予報(TAF)
発表時間: 8/07 03:00 VUT (8/06 16:00 UTC)
予報対象時間: 7日5時 VUT ~ 8日5時 VUT
風向・風速南東 5m/s
視程10km以上
全天の4割程度の雲 雲底高度 670m
TAF NVVV 061600Z 0618/0718 14009KT 9999 SCT022